Disclaimer

Please do not use the information listed here in-flight or in-navigation, as they are not provided to us by the airports but are provided by volunteers, so they might be outdated.

Search


Regions


Airport information page

Radio informations:
Tower (TWR) - 128.0 MHz
Ground (GND) - 119.0 MHz
Automatic Terminal Information Service (ATIS) - 132.8 MHz
Approach (APP) - 127.2 MHz

Airport informations:
Latitude: 41° 40' 09.00" N
Longitude: 044° 57' 17.00" E
Elevation: 1624 feet - 495 meters
Operating hours: 24 hour operations
Operating agency: Civil government, landing fees and diplomatic clearance may be required
Timezone: UTC+3(+4DT) - Last Sunday in March to last Sunday in October
Fuel: Unknown fuel type or whether there is any fuel.

Runway information:
13R/31L - 9843 x 147 feet< - >3000 x 45 meters
13L/31R - 8202 x 196 feet< - >2500 x 60 meters

Recent METARs:
UGTB 180730Z 31018KT CAVOK 10/03 Q1025 NOSIG
UGTB 180800Z 32016KT CAVOK 10/02 Q1025 NOSIG
UGTB 180830Z 32018KT CAVOK 11/03 Q1025 NOSIG

Airport on the map: